sensor_id;sensor_type;location;lat;lon;timestamp;pressure;altitude;pressure_sealevel;temperature;humidity
498;BME280;39559;48.630;9.162;2023-02-18T00:02:06;98421.06;;;9.93;100.00
498;BME280;39559;48.630;9.162;2023-02-18T00:04:32;98430.56;;;9.94;100.00
498;BME280;39559;48.630;9.162;2023-02-18T00:07:00;98413.38;;;9.90;100.00
498;BME280;39559;48.630;9.162;2023-02-18T00:11:31;98414.00;;;9.98;100.00
498;BME280;39559;48.630;9.162;2023-02-18T00:13:59;98408.09;;;9.93;100.00
498;BME280;39559;48.630;9.162;2023-02-18T00:16:28;98400.25;;;9.94;100.00
498;BME280;39559;48.630;9.162;2023-02-18T00:19:02;98401.31;;;9.87;100.00
498;BME280;39559;48.630;9.162;2023-02-18T00:21:29;98401.16;;;9.93;100.00
498;BME280;39559;48.630;9.162;2023-02-18T00:23:54;98399.38;;;9.95;100.00
498;BME280;39559;48.630;9.162;2023-02-18T00:26:20;98390.69;;;9.96;100.00
498;BME280;39559;48.630;9.162;2023-02-18T00:28:47;98389.88;;;9.94;100.00
498;BME280;39559;48.630;9.162;2023-02-18T00:31:17;98384.75;;;9.91;100.00
498;BME280;39559;48.630;9.162;2023-02-18T00:35:26;98390.78;;;9.93;100.00
498;BME280;39559;48.630;9.162;2023-02-18T00:37:51;98389.94;;;9.91;100.00
498;BME280;39559;48.630;9.162;2023-02-18T00:40:18;98397.06;;;9.85;100.00
498;BME280;39559;48.630;9.162;2023-02-18T00:42:44;98395.25;;;9.88;100.00
498;BME280;39559;48.630;9.162;2023-02-18T00:45:09;98386.78;;;9.80;100.00
498;BME280;39559;48.630;9.162;2023-02-18T00:47:35;98381.69;;;9.77;100.00
498;BME280;39559;48.630;9.162;2023-02-18T00:50:00;98380.72;;;9.81;100.00
498;BME280;39559;48.630;9.162;2023-02-18T00:52:26;98375.50;;;9.83;100.00
498;BME280;39559;48.630;9.162;2023-02-18T00:54:51;98373.78;;;9.82;100.00
498;BME280;39559;48.630;9.162;2023-02-18T00:59:24;98364.31;;;9.80;100.00
498;BME280;39559;48.630;9.162;2023-02-18T01:01:49;98363.41;;;9.82;100.00
498;BME280;39559;48.630;9.162;2023-02-18T01:04:15;98370.41;;;9.78;100.00
498;BME280;39559;48.630;9.162;2023-02-18T01:06:41;98368.66;;;9.78;100.00
498;BME280;39559;48.630;9.162;2023-02-18T01:09:09;98364.34;;;9.79;100.00
498;BME280;39559;48.630;9.162;2023-02-18T01:11:35;98367.81;;;9.78;100.00
498;BME280;39559;48.630;9.162;2023-02-18T01:14:02;98371.22;;;9.80;100.00
498;BME280;39559;48.630;9.162;2023-02-18T01:16:28;98376.50;;;9.77;100.00
498;BME280;39559;48.630;9.162;2023-02-18T01:18:54;98372.94;;;9.81;100.00
498;BME280;39559;48.630;9.162;2023-02-18T01:23:22;98363.56;;;9.75;100.00
498;BME280;39559;48.630;9.162;2023-02-18T01:25:48;98361.81;;;9.76;100.00
498;BME280;39559;48.630;9.162;2023-02-18T01:28:14;98354.81;;;9.79;100.00
498;BME280;39559;48.630;9.162;2023-02-18T01:30:40;98360.94;;;9.77;100.00
498;BME280;39559;48.630;9.162;2023-02-18T01:33:06;98361.09;;;9.69;100.00
498;BME280;39559;48.630;9.162;2023-02-18T01:35:32;98351.66;;;9.68;100.00
498;BME280;39559;48.630;9.162;2023-02-18T01:37:58;98350.03;;;9.64;100.00
498;BME280;39559;48.630;9.162;2023-02-18T01:40:26;98347.50;;;9.61;100.00
498;BME280;39559;48.630;9.162;2023-02-18T01:42:52;98340.63;;;9.58;100.00
498;BME280;39559;48.630;9.162;2023-02-18T01:47:19;98352.78;;;9.56;100.00
498;BME280;39559;48.630;9.162;2023-02-18T01:49:49;98350.09;;;9.61;100.00
498;BME280;39559;48.630;9.162;2023-02-18T01:52:24;98347.56;;;9.58;100.00
498;BME280;39559;48.630;9.162;2023-02-18T01:54:54;98355.50;;;9.52;100.00
498;BME280;39559;48.630;9.162;2023-02-18T01:57:24;98345.16;;;9.50;100.00
498;BME280;39559;48.630;9.162;2023-02-18T02:00:08;98352.88;;;9.53;100.00
498;BME280;39559;48.630;9.162;2023-02-18T02:02:39;98345.22;;;9.47;100.00
498;BME280;39559;48.630;9.162;2023-02-18T02:05:07;98344.41;;;9.45;100.00
498;BME280;39559;48.630;9.162;2023-02-18T02:07:32;98338.66;;;9.34;100.00
498;BME280;39559;48.630;9.162;2023-02-18T02:11:22;98341.47;;;9.25;100.00
498;BME280;39559;48.630;9.162;2023-02-18T02:16:29;98330.25;;;9.24;100.00
498;BME280;39559;48.630;9.162;2023-02-18T02:19:51;98328.47;;;9.26;100.00
498;BME280;39559;48.630;9.162;2023-02-18T02:35:36;98325.53;;;9.04;100.00
498;BME280;39559;48.630;9.162;2023-02-18T02:38:06;98321.31;;;8.98;100.00
498;BME280;39559;48.630;9.162;2023-02-18T02:40:51;98328.16;;;9.02;100.00
498;BME280;39559;48.630;9.162;2023-02-18T02:43:44;98320.28;;;9.06;100.00
498;BME280;39559;48.630;9.162;2023-02-18T02:46:27;98311.72;;;9.02;100.00
498;BME280;39559;48.630;9.162;2023-02-18T02:49:09;98315.19;;;9.02;100.00
498;BME280;39559;48.630;9.162;2023-02-18T02:51:45;98310.09;;;8.98;100.00
498;BME280;39559;48.630;9.162;2023-02-18T02:54:16;98314.31;;;9.02;100.00
498;BME280;39559;48.630;9.162;2023-02-18T02:59:19;98301.47;;;8.99;100.00
498;BME280;39559;48.630;9.162;2023-02-18T03:11:02;98294.47;;;9.02;100.00
498;BME280;39559;48.630;9.162;2023-02-18T03:16:17;98291.72;;;9.09;100.00
498;BME280;39559;48.630;9.162;2023-02-18T03:23:16;98300.28;;;9.12;100.00
498;BME280;39559;48.630;9.162;2023-02-18T03:25:44;98295.88;;;9.16;100.00
498;BME280;39559;48.630;9.162;2023-02-18T03:28:13;98294.94;;;9.18;100.00
498;BME280;39559;48.630;9.162;2023-02-18T03:31:01;98281.97;;;9.18;100.00
498;BME280;39559;48.630;9.162;2023-02-18T03:33:34;98281.94;;;9.20;100.00
498;BME280;39559;48.630;9.162;2023-02-18T03:36:01;98277.13;;;9.06;100.00
498;BME280;39559;48.630;9.162;2023-02-18T03:41:31;98273.50;;;9.13;100.00
498;BME280;39559;48.630;9.162;2023-02-18T03:44:00;98258.06;;;9.07;100.00
498;BME280;39559;48.630;9.162;2023-02-18T03:47:07;98265.34;;;8.91;100.00
498;BME280;39559;48.630;9.162;2023-02-18T03:49:36;98261.25;;;8.82;100.00
498;BME280;39559;48.630;9.162;2023-02-18T03:52:01;98253.44;;;8.84;100.00
498;BME280;39559;48.630;9.162;2023-02-18T03:54:27;98256.78;;;8.89;100.00
498;BME280;39559;48.630;9.162;2023-02-18T03:56:52;98258.72;;;8.79;100.00
498;BME280;39559;48.630;9.162;2023-02-18T03:59:18;98266.34;;;8.86;100.00
498;BME280;39559;48.630;9.162;2023-02-18T04:01:43;98266.34;;;8.86;100.00
498;BME280;39559;48.630;9.162;2023-02-18T04:04:09;98261.19;;;8.84;100.00
498;BME280;39559;48.630;9.162;2023-02-18T04:06:34;98260.69;;;8.70;100.00
498;BME280;39559;48.630;9.162;2023-02-18T04:11:05;98281.63;;;8.60;100.00
498;BME280;39559;48.630;9.162;2023-02-18T04:13:31;98277.38;;;8.55;100.00
498;BME280;39559;48.630;9.162;2023-02-18T04:15:56;98267.19;;;8.49;100.00
498;BME280;39559;48.630;9.162;2023-02-18T04:18:22;98274.78;;;8.56;100.00
498;BME280;39559;48.630;9.162;2023-02-18T04:20:48;98277.47;;;8.52;100.00
498;BME280;39559;48.630;9.162;2023-02-18T04:23:14;98273.47;;;8.35;100.00
498;BME280;39559;48.630;9.162;2023-02-18T04:25:40;98274.25;;;8.40;100.00
498;BME280;39559;48.630;9.162;2023-02-18T04:28:05;98272.94;;;8.19;100.00
498;BME280;39559;48.630;9.162;2023-02-18T04:30:31;98260.66;;;8.29;100.00
498;BME280;39559;48.630;9.162;2023-02-18T04:35:03;98269.31;;;8.28;100.00
498;BME280;39559;48.630;9.162;2023-02-18T04:37:29;98269.44;;;8.20;100.00
498;BME280;39559;48.630;9.162;2023-02-18T04:39:55;98267.84;;;8.15;100.00
498;BME280;39559;48.630;9.162;2023-02-18T04:42:20;98271.16;;;8.21;100.00
498;BME280;39559;48.630;9.162;2023-02-18T04:44:46;98259.03;;;8.25;100.00
498;BME280;39559;48.630;9.162;2023-02-18T04:47:11;98258.19;;;8.23;100.00
498;BME280;39559;48.630;9.162;2023-02-18T04:49:37;98263.38;;;8.23;100.00
498;BME280;39559;48.630;9.162;2023-02-18T04:52:02;98264.97;;;8.30;100.00
498;BME280;39559;48.630;9.162;2023-02-18T04:54:28;98257.34;;;8.22;100.00
498;BME280;39559;48.630;9.162;2023-02-18T04:59:00;98262.44;;;8.27;100.00
498;BME280;39559;48.630;9.162;2023-02-18T05:01:26;98267.63;;;8.25;100.00
498;BME280;39559;48.630;9.162;2023-02-18T05:03:52;98264.41;;;8.14;100.00
498;BME280;39559;48.630;9.162;2023-02-18T05:06:20;98266.03;;;8.20;100.00
498;BME280;39559;48.630;9.162;2023-02-18T05:08:45;98267.84;;;8.15;100.00
498;BME280;39559;48.630;9.162;2023-02-18T05:11:11;98260.97;;;8.14;100.00
498;BME280;39559;48.630;9.162;2023-02-18T05:13:36;98260.75;;;8.26;100.00
498;BME280;39559;48.630;9.162;2023-02-18T05:16:02;98259.00;;;8.26;100.00
498;BME280;39559;48.630;9.162;2023-02-18T05:18:28;98253.78;;;8.28;100.00
498;BME280;39559;48.630;9.162;2023-02-18T05:22:58;98258.88;;;8.31;100.00
498;BME280;39559;48.630;9.162;2023-02-18T05:25:23;98268.16;;;8.43;100.00
498;BME280;39559;48.630;9.162;2023-02-18T05:27:49;98275.81;;;8.48;100.00
498;BME280;39559;48.630;9.162;2023-02-18T05:30:15;98255.97;;;8.50;100.00
498;BME280;39559;48.630;9.162;2023-02-18T05:32:46;98258.41;;;8.56;100.00
498;BME280;39559;48.630;9.162;2023-02-18T05:35:11;98263.34;;;8.67;100.00
498;BME280;39559;48.630;9.162;2023-02-18T05:37:38;98259.91;;;8.66;100.00
498;BME280;39559;48.630;9.162;2023-02-18T05:40:04;98253.00;;;8.65;100.00
498;BME280;39559;48.630;9.162;2023-02-18T05:42:30;98257.22;;;8.69;100.00
498;BME280;39559;48.630;9.162;2023-02-18T05:47:02;98258.13;;;8.68;100.00
498;BME280;39559;48.630;9.162;2023-02-18T05:49:29;98257.91;;;8.77;100.00
498;BME280;39559;48.630;9.162;2023-02-18T05:51:55;98258.72;;;8.79;100.00
498;BME280;39559;48.630;9.162;2023-02-18T05:54:22;98256.19;;;8.78;100.00
498;BME280;39559;48.630;9.162;2023-02-18T05:56:47;98255.13;;;8.87;100.00
498;BME280;39559;48.630;9.162;2023-02-18T05:59:16;98249.91;;;8.88;100.00
498;BME280;39559;48.630;9.162;2023-02-18T06:01:42;98251.84;;;8.78;100.00
498;BME280;39559;48.630;9.162;2023-02-18T06:04:08;98250.00;;;8.83;100.00
498;BME280;39559;48.630;9.162;2023-02-18T06:06:34;98249.94;;;8.87;100.00
498;BME280;39559;48.630;9.162;2023-02-18T06:10:54;98258.09;;;8.70;100.00
498;BME280;39559;48.630;9.162;2023-02-18T06:13:20;98250.34;;;8.70;100.00
498;BME280;39559;48.630;9.162;2023-02-18T06:15:45;98252.13;;;8.66;100.00
498;BME280;39559;48.630;9.162;2023-02-18T06:18:14;98249.47;;;8.69;100.00
498;BME280;39559;48.630;9.162;2023-02-18T06:20:39;98246.00;;;8.70;100.00
498;BME280;39559;48.630;9.162;2023-02-18T06:23:05;98238.06;;;8.76;100.00
498;BME280;39559;48.630;9.162;2023-02-18T06:25:30;98244.50;;;8.60;100.00
498;BME280;39559;48.630;9.162;2023-02-18T06:27:55;98246.03;;;8.69;100.00
498;BME280;39559;48.630;9.162;2023-02-18T06:30:21;98251.47;;;8.56;100.00
498;BME280;39559;48.630;9.162;2023-02-18T06:34:52;98252.38;;;8.55;100.00
498;BME280;39559;48.630;9.162;2023-02-18T06:37:17;98246.28;;;8.56;100.00
498;BME280;39559;48.630;9.162;2023-02-18T06:39:43;98247.22;;;8.54;100.00
498;BME280;39559;48.630;9.162;2023-02-18T06:42:08;98247.59;;;8.76;100.00
498;BME280;39559;48.630;9.162;2023-02-18T06:44:34;98244.91;;;8.80;100.00
498;BME280;39559;48.630;9.162;2023-02-18T06:46:59;98238.00;;;8.79;100.00
498;BME280;39559;48.630;9.162;2023-02-18T06:49:25;98242.03;;;8.91;100.00
498;BME280;39559;48.630;9.162;2023-02-18T06:51:50;98248.91;;;8.94;100.00
498;BME280;39559;48.630;9.162;2023-02-18T06:54:16;98246.31;;;8.94;100.00
498;BME280;39559;48.630;9.162;2023-02-18T06:58:50;98251.31;;;9.01;100.00
498;BME280;39559;48.630;9.162;2023-02-18T07:01:15;98257.22;;;9.07;100.00
498;BME280;39559;48.630;9.162;2023-02-18T07:03:41;98254.59;;;9.08;100.00
498;BME280;39559;48.630;9.162;2023-02-18T07:06:06;98254.56;;;9.10;100.00
498;BME280;39559;48.630;9.162;2023-02-18T07:08:32;98257.88;;;9.15;100.00
498;BME280;39559;48.630;9.162;2023-02-18T07:11:00;98255.25;;;9.16;100.00
498;BME280;39559;48.630;9.162;2023-02-18T07:13:26;98257.81;;;9.18;100.00
498;BME280;39559;48.630;9.162;2023-02-18T07:15:51;98267.41;;;9.14;100.00
498;BME280;39559;48.630;9.162;2023-02-18T07:18:17;98265.56;;;9.19;100.00
498;BME280;39559;48.630;9.162;2023-02-18T07:22:48;98259.38;;;9.25;100.00
498;BME280;39559;48.630;9.162;2023-02-18T07:25:13;98250.81;;;9.21;100.00
498;BME280;39559;48.630;9.162;2023-02-18T07:27:39;98251.63;;;9.23;100.00
498;BME280;39559;48.630;9.162;2023-02-18T07:30:05;98255.81;;;9.29;100.00
498;BME280;39559;48.630;9.162;2023-02-18T07:32:31;98256.69;;;9.30;100.00
498;BME280;39559;48.630;9.162;2023-02-18T07:34:57;98248.06;;;9.28;100.00
498;BME280;39559;48.630;9.162;2023-02-18T07:37:22;98248.06;;;9.28;100.00
498;BME280;39559;48.630;9.162;2023-02-18T07:39:48;98247.19;;;9.29;100.00
498;BME280;39559;48.630;9.162;2023-02-18T07:42:14;98250.50;;;9.35;100.00
498;BME280;39559;48.630;9.162;2023-02-18T07:46:46;98245.72;;;9.51;100.00
498;BME280;39559;48.630;9.162;2023-02-18T07:49:14;98240.41;;;9.57;100.00
498;BME280;39559;48.630;9.162;2023-02-18T07:51:40;98243.88;;;9.56;100.00
498;BME280;39559;48.630;9.162;2023-02-18T07:54:05;98242.03;;;9.61;100.00
498;BME280;39559;48.630;9.162;2023-02-18T07:56:31;98242.69;;;9.70;100.00
498;BME280;39559;48.630;9.162;2023-02-18T07:58:57;98239.19;;;9.71;100.00
498;BME280;39559;48.630;9.162;2023-02-18T08:01:22;98228.59;;;9.78;100.00
498;BME280;39559;48.630;9.162;2023-02-18T08:03:48;98234.66;;;9.79;100.00
498;BME280;39559;48.630;9.162;2023-02-18T08:06:21;98236.97;;;9.88;100.00
498;BME280;39559;48.630;9.162;2023-02-18T08:10:44;98223.72;;;9.99;100.00
498;BME280;39559;48.630;9.162;2023-02-18T08:13:09;98215.13;;;9.97;100.00
498;BME280;39559;48.630;9.162;2023-02-18T08:15:35;98218.38;;;10.04;100.00
498;BME280;39559;48.630;9.162;2023-02-18T08:18:01;98220.91;;;10.07;100.00
498;BME280;39559;48.630;9.162;2023-02-18T08:20:27;98225.19;;;10.08;100.00
498;BME280;39559;48.630;9.162;2023-02-18T08:22:53;98219.03;;;10.12;100.00
498;BME280;39559;48.630;9.162;2023-02-18T08:25:18;98218.09;;;10.13;100.00
498;BME280;39559;48.630;9.162;2023-02-18T08:27:44;98212.91;;;10.13;100.00
498;BME280;39559;48.630;9.162;2023-02-18T08:30:10;98218.88;;;10.16;100.00
498;BME280;39559;48.630;9.162;2023-02-18T08:34:42;98222.94;;;10.25;100.00
498;BME280;39559;48.630;9.162;2023-02-18T08:37:07;98218.59;;;10.26;100.00
498;BME280;39559;48.630;9.162;2023-02-18T08:39:37;98218.47;;;10.30;100.00
498;BME280;39559;48.630;9.162;2023-02-18T08:42:03;98209.78;;;10.33;100.00
498;BME280;39559;48.630;9.162;2023-02-18T08:44:29;98216.75;;;10.31;100.00
498;BME280;39559;48.630;9.162;2023-02-18T08:46:54;98216.72;;;10.32;100.00
498;BME280;39559;48.630;9.162;2023-02-18T08:49:20;98213.28;;;10.32;100.00
498;BME280;39559;48.630;9.162;2023-02-18T08:51:49;98219.84;;;10.44;100.00
498;BME280;39559;48.630;9.162;2023-02-18T08:54:16;98211.97;;;10.47;100.00
498;BME280;39559;48.630;9.162;2023-02-18T08:58:43;98208.38;;;10.51;100.00
498;BME280;39559;48.630;9.162;2023-02-18T09:01:10;98206.47;;;10.56;100.00
498;BME280;39559;48.630;9.162;2023-02-18T09:03:37;98215.88;;;10.60;100.00
498;BME280;39559;48.630;9.162;2023-02-18T09:06:03;98220.91;;;10.66;100.00
498;BME280;39559;48.630;9.162;2023-02-18T09:08:28;98216.50;;;10.68;100.00
498;BME280;39559;48.630;9.162;2023-02-18T09:10:59;98194.88;;;10.68;100.00
498;BME280;39559;48.630;9.162;2023-02-18T09:13:25;98197.22;;;10.75;100.00
498;BME280;39559;48.630;9.162;2023-02-18T09:15:59;98204.34;;;10.69;100.00
498;BME280;39559;48.630;9.162;2023-02-18T09:18:25;98202.41;;;10.75;100.00
498;BME280;39559;48.630;9.162;2023-02-18T09:22:37;98206.09;;;10.95;100.00
498;BME280;39559;48.630;9.162;2023-02-18T09:25:03;98196.53;;;10.97;100.00
498;BME280;39559;48.630;9.162;2023-02-18T09:27:29;98191.47;;;11.19;100.00
498;BME280;39559;48.630;9.162;2023-02-18T09:29:55;98194.44;;;11.33;100.00
498;BME280;39559;48.630;9.162;2023-02-18T09:32:20;98195.56;;;11.51;100.00
498;BME280;39559;48.630;9.162;2023-02-18T09:34:46;98187.03;;;11.48;100.00
498;BME280;39559;48.630;9.162;2023-02-18T09:37:11;98179.50;;;11.64;100.00
498;BME280;39559;48.630;9.162;2023-02-18T09:39:38;98183.63;;;11.69;100.00
498;BME280;39559;48.630;9.162;2023-02-18T09:42:06;98179.63;;;11.61;100.00
498;BME280;39559;48.630;9.162;2023-02-18T09:46:40;98170.53;;;11.72;100.00
498;BME280;39559;48.630;9.162;2023-02-18T09:49:14;98179.44;;;11.90;100.00
498;BME280;39559;48.630;9.162;2023-02-18T09:51:43;98161.56;;;12.05;100.00
498;BME280;39559;48.630;9.162;2023-02-18T09:54:11;98171.06;;;12.52;100.00
498;BME280;39559;48.630;9.162;2023-02-18T09:56:39;98172.13;;;12.46;100.00
498;BME280;39559;48.630;9.162;2023-02-18T09:59:12;98167.13;;;12.63;99.22
498;BME280;39559;48.630;9.162;2023-02-18T10:01:40;98182.06;;;12.36;100.00
498;BME280;39559;48.630;9.162;2023-02-18T10:04:16;98179.78;;;12.05;100.00
498;BME280;39559;48.630;9.162;2023-02-18T10:06:44;98175.63;;;12.01;100.00
498;BME280;39559;48.630;9.162;2023-02-18T10:10:42;98175.63;;;11.76;100.00
498;BME280;39559;48.630;9.162;2023-02-18T10:13:17;98182.84;;;11.67;100.00
498;BME280;39559;48.630;9.162;2023-02-18T10:15:47;98179.88;;;11.53;100.00
498;BME280;39559;48.630;9.162;2023-02-18T10:18:36;98179.41;;;11.67;100.00
498;BME280;39559;48.630;9.162;2023-02-18T10:21:05;98182.09;;;11.64;100.00
498;BME280;39559;48.630;9.162;2023-02-18T10:23:33;98175.56;;;11.53;100.00
498;BME280;39559;48.630;9.162;2023-02-18T10:26:03;98174.91;;;11.47;100.00
498;BME280;39559;48.630;9.162;2023-02-18T10:28:31;98172.78;;;11.33;100.00
498;BME280;39559;48.630;9.162;2023-02-18T10:31:02;98166.72;;;11.32;100.00
498;BME280;39559;48.630;9.162;2023-02-18T10:34:57;98169.44;;;11.29;100.00
498;BME280;39559;48.630;9.162;2023-02-18T10:50:37;98187.09;;;11.20;100.00
498;BME280;39559;48.630;9.162;2023-02-18T10:53:13;98190.50;;;11.22;100.00
498;BME280;39559;48.630;9.162;2023-02-18T10:55:43;98196.66;;;11.19;100.00
498;BME280;39559;48.630;9.162;2023-02-18T10:58:34;98193.28;;;11.17;100.00
498;BME280;39559;48.630;9.162;2023-02-18T11:01:05;98190.31;;;11.28;100.00
498;BME280;39559;48.630;9.162;2023-02-18T11:04:15;98183.72;;;11.18;100.00
498;BME280;39559;48.630;9.162;2023-02-18T11:06:47;98190.91;;;11.09;100.00
498;BME280;39559;48.630;9.162;2023-02-18T11:12:04;98170.97;;;11.10;100.00
498;BME280;39559;48.630;9.162;2023-02-18T11:15:14;98157.81;;;11.14;100.00
498;BME280;39559;48.630;9.162;2023-02-18T11:17:46;98165.56;;;11.16;100.00
498;BME280;39559;48.630;9.162;2023-02-18T11:22:34;98162.75;;;11.22;100.00
498;BME280;39559;48.630;9.162;2023-02-18T11:25:20;98149.00;;;11.19;100.00
498;BME280;39559;48.630;9.162;2023-02-18T11:27:51;98144.44;;;11.25;100.00
498;BME280;39559;48.630;9.162;2023-02-18T11:30:22;98143.59;;;11.25;100.00
498;BME280;39559;48.630;9.162;2023-02-18T11:35:36;98140.00;;;11.29;100.00
498;BME280;39559;48.630;9.162;2023-02-18T11:38:04;98143.94;;;11.41;100.00
498;BME280;39559;48.630;9.162;2023-02-18T11:40:40;98129.84;;;11.46;100.00
498;BME280;39559;48.630;9.162;2023-02-18T11:43:14;98127.41;;;11.65;100.00
498;BME280;39559;48.630;9.162;2023-02-18T11:46:25;98123.63;;;11.74;100.00
498;BME280;39559;48.630;9.162;2023-02-18T11:48:52;98126.25;;;11.74;100.00
498;BME280;39559;48.630;9.162;2023-02-18T11:51:19;98124.91;;;11.86;100.00
498;BME280;39559;48.630;9.162;2023-02-18T11:53:56;98115.16;;;11.93;100.00
498;BME280;39559;48.630;9.162;2023-02-18T11:56:32;98118.09;;;12.07;98.17
498;BME280;39559;48.630;9.162;2023-02-18T11:58:59;98120.81;;;12.04;97.59
498;BME280;39559;48.630;9.162;2023-02-18T12:04:13;98123.09;;;12.35;98.75
498;BME280;39559;48.630;9.162;2023-02-18T12:10:31;98109.50;;;12.05;93.33
498;BME280;39559;48.630;9.162;2023-02-18T12:13:24;98104.56;;;12.21;91.98
498;BME280;39559;48.630;9.162;2023-02-18T12:29:51;98108.56;;;12.06;90.01
498;BME280;39559;48.630;9.162;2023-02-18T12:34:37;98103.16;;;12.12;88.86
498;BME280;39559;48.630;9.162;2023-02-18T12:37:32;98107.31;;;11.94;89.74
498;BME280;39559;48.630;9.162;2023-02-18T12:46:19;98090.19;;;12.10;86.62
498;BME280;39559;48.630;9.162;2023-02-18T12:55:08;98092.41;;;12.42;80.79
498;BME280;39559;48.630;9.162;2023-02-18T13:01:50;98095.03;;;12.42;80.33
498;BME280;39559;48.630;9.162;2023-02-18T13:09:18;98091.53;;;12.63;77.65
498;BME280;39559;48.630;9.162;2023-02-18T13:12:00;98084.22;;;12.51;77.47
498;BME280;39559;48.630;9.162;2023-02-18T13:14:43;98073.63;;;12.56;77.79
498;BME280;39559;48.630;9.162;2023-02-18T13:17:12;98072.19;;;12.69;79.82
498;BME280;39559;48.630;9.162;2023-02-18T13:22:15;98056.28;;;12.55;76.98
498;BME280;39559;48.630;9.162;2023-02-18T13:24:44;98054.94;;;12.66;76.50
498;BME280;39559;48.630;9.162;2023-02-18T13:38:02;98051.28;;;12.91;76.82
498;BME280;39559;48.630;9.162;2023-02-18T13:40:33;98051.41;;;13.09;76.13
498;BME280;39559;48.630;9.162;2023-02-18T13:46:15;98044.00;;;12.99;74.63
498;BME280;39559;48.630;9.162;2023-02-18T13:51:32;98049.59;;;12.70;77.04
498;BME280;39559;48.630;9.162;2023-02-18T13:56:32;98044.25;;;12.73;76.29
498;BME280;39559;48.630;9.162;2023-02-18T13:59:06;98037.50;;;12.68;76.88
498;BME280;39559;48.630;9.162;2023-02-18T14:01:41;98038.13;;;12.53;76.50
498;BME280;39559;48.630;9.162;2023-02-18T14:25:57;98013.66;;;13.17;74.59
498;BME280;39559;48.630;9.162;2023-02-18T14:36:42;98000.13;;;13.28;72.29
498;BME280;39559;48.630;9.162;2023-02-18T14:47:55;97997.88;;;12.60;74.43
498;BME280;39559;48.630;9.162;2023-02-18T14:50:17;98003.66;;;12.87;74.36
498;BME280;39559;48.630;9.162;2023-02-18T14:52:53;97994.59;;;12.96;74.22
498;BME280;39559;48.630;9.162;2023-02-18T14:55:24;98003.59;;;12.68;73.41
498;BME280;39559;48.630;9.162;2023-02-18T14:58:07;98002.97;;;12.43;74.94
498;BME280;39559;48.630;9.162;2023-02-18T15:00:41;98006.56;;;12.61;73.87
498;BME280;39559;48.630;9.162;2023-02-18T15:03:15;98010.25;;;12.55;73.97
498;BME280;39559;48.630;9.162;2023-02-18T15:05:42;98008.69;;;12.51;74.59
498;BME280;39559;48.630;9.162;2023-02-18T15:08:37;98005.94;;;12.54;74.70
498;BME280;39559;48.630;9.162;2023-02-18T15:11:05;98011.03;;;12.57;74.23
498;BME280;39559;48.630;9.162;2023-02-18T15:13:37;98001.72;;;12.52;75.75
498;BME280;39559;48.630;9.162;2023-02-18T15:16:08;97989.81;;;12.66;75.00
498;BME280;39559;48.630;9.162;2023-02-18T15:18:40;97995.97;;;12.64;76.37
498;BME280;39559;48.630;9.162;2023-02-18T15:21:59;97998.41;;;12.48;76.12
498;BME280;39559;48.630;9.162;2023-02-18T15:24:31;98001.25;;;12.42;76.53
498;BME280;39559;48.630;9.162;2023-02-18T15:27:02;97987.19;;;12.66;75.96
498;BME280;39559;48.630;9.162;2023-02-18T15:29:34;97995.09;;;12.65;76.15
498;BME280;39559;48.630;9.162;2023-02-18T15:34:42;98000.91;;;12.49;77.10
498;BME280;39559;48.630;9.162;2023-02-18T15:37:12;98007.63;;;12.35;77.43
498;BME280;39559;48.630;9.162;2023-02-18T15:39:42;97998.31;;;12.29;77.82
498;BME280;39559;48.630;9.162;2023-02-18T15:42:26;97991.72;;;12.20;77.06
498;BME280;39559;48.630;9.162;2023-02-18T15:45:57;98008.31;;;12.18;77.90
498;BME280;39559;48.630;9.162;2023-02-18T15:49:02;97991.31;;;12.09;78.48
498;BME280;39559;48.630;9.162;2023-02-18T15:51:25;98001.63;;;12.12;77.82
498;BME280;39559;48.630;9.162;2023-02-18T15:53:55;98004.72;;;12.20;78.23
498;BME280;39559;48.630;9.162;2023-02-18T15:56:38;98010.09;;;12.17;78.58
498;BME280;39559;48.630;9.162;2023-02-18T15:59:28;98001.41;;;12.17;78.55
498;BME280;39559;48.630;9.162;2023-02-18T16:02:21;98001.25;;;12.21;78.49
498;BME280;39559;48.630;9.162;2023-02-18T16:04:57;97999.63;;;12.19;78.70
498;BME280;39559;48.630;9.162;2023-02-18T16:10:22;98004.16;;;12.14;78.50
498;BME280;39559;48.630;9.162;2023-02-18T16:12:54;97996.63;;;12.28;78.15
498;BME280;39559;48.630;9.162;2023-02-18T16:15:30;98000.22;;;12.03;79.94
498;BME280;39559;48.630;9.162;2023-02-18T16:17:56;98007.41;;;11.97;79.42
498;BME280;39559;48.630;9.162;2023-02-18T16:23:00;98003.66;;;11.82;80.88
498;BME280;39559;48.630;9.162;2023-02-18T16:25:45;97993.72;;;11.69;81.74
498;BME280;39559;48.630;9.162;2023-02-18T16:30:36;98001.03;;;11.60;81.05
498;BME280;39559;48.630;9.162;2023-02-18T16:33:50;98002.66;;;11.62;81.72
498;BME280;39559;48.630;9.162;2023-02-18T16:36:16;98003.75;;;11.57;82.72
498;BME280;39559;48.630;9.162;2023-02-18T16:38:43;98010.94;;;11.50;83.25
498;BME280;39559;48.630;9.162;2023-02-18T16:41:13;98007.47;;;11.49;83.63
498;BME280;39559;48.630;9.162;2023-02-18T16:43:39;98004.78;;;11.52;83.32
498;BME280;39559;48.630;9.162;2023-02-18T16:46:14;98003.25;;;11.47;83.42
498;BME280;39559;48.630;9.162;2023-02-18T16:48:43;97999.91;;;11.43;84.19
498;BME280;39559;48.630;9.162;2023-02-18T16:51:16;98005.28;;;11.39;85.21
498;BME280;39559;48.630;9.162;2023-02-18T16:53:43;97996.78;;;11.35;84.53
498;BME280;39559;48.630;9.162;2023-02-18T16:57:47;97999.44;;;11.33;85.05
498;BME280;39559;48.630;9.162;2023-02-18T17:00:14;98002.88;;;11.34;84.66
498;BME280;39559;48.630;9.162;2023-02-18T17:02:42;98009.88;;;11.32;84.79
498;BME280;39559;48.630;9.162;2023-02-18T17:05:15;97999.09;;;11.43;84.66
498;BME280;39559;48.630;9.162;2023-02-18T17:07:41;98007.38;;;11.29;84.84
498;BME280;39559;48.630;9.162;2023-02-18T17:10:06;98014.41;;;11.27;84.89
498;BME280;39559;48.630;9.162;2023-02-18T17:12:32;98010.91;;;11.28;85.28
498;BME280;39559;48.630;9.162;2023-02-18T17:15:00;98005.91;;;11.22;85.74
498;BME280;39559;48.630;9.162;2023-02-18T17:17:26;98010.28;;;11.21;85.61